Time;durP1;ratioP1;P1;durP2;ratioP2;P2;SDS_P1;SDS_P2;PMS_P1;PMS_P2;Temp;Humidity;BMP_temperature;BMP_pressure;BME280_temperature;BME280_humidity;BME280_pressure;Samples;Min_cycle;Max_cycle;Signal;HPM_P1;HPM_P2
2023/03/03 00:01:31;;;;;;;23.47;12.13;;;0.90;99.90;0.50;101136.00;;;;4931214;28;94106;-64
2023/03/03 00:03:56;;;;;;;21.03;11.77;;;0.70;99.90;0.50;101141.00;;;;4929562;28;92946;-64
2023/03/03 00:06:23;;;;;;;11.63;8.97;;;0.90;99.90;0.50;101139.00;;;;4932554;28;112800;-64
2023/03/03 00:08:49;;;;;;;16.90;9.50;;;1.30;99.90;0.50;101131.00;;;;4917175;28;92981;-65
2023/03/03 00:11:15;;;;;;;18.97;11.53;;;0.90;99.90;0.50;101127.00;;;;4932940;28;122325;-64
2023/03/03 00:13:51;;;;;;;10.27;7.37;;;0.90;99.90;0.50;101131.00;;;;4932748;28;122605;-65
2023/03/03 00:16:24;;;;;;;20.67;8.63;;;0.80;99.90;0.50;101125.00;;;;4934309;28;97234;-64
2023/03/03 00:18:51;;;;;;;13.43;7.63;;;0.70;99.90;0.50;101122.00;;;;4932574;28;93886;-66
2023/03/03 00:21:31;;;;;;;14.90;7.97;;;0.80;99.90;0.40;101129.00;;;;4933940;28;94058;-65
2023/03/03 00:24:36;;;;;;;18.83;9.20;;;0.80;99.90;0.40;101124.00;;;;4935840;28;93363;-64
2023/03/03 00:27:18;;;;;;;14.03;8.33;;;0.70;99.90;0.30;101128.00;;;;4934332;28;93105;-64
2023/03/03 00:29:50;;;;;;;12.30;7.13;;;0.70;99.90;0.30;101131.00;;;;4915857;28;99838;-65
2023/03/03 00:32:38;;;;;;;14.67;8.27;;;0.60;99.90;0.30;101140.00;;;;4933750;28;94309;-65
2023/03/03 00:35:34;;;;;;;15.73;7.67;;;0.60;99.90;0.20;101142.00;;;;4915659;28;92920;-64
2023/03/03 00:38:10;;;;;;;14.70;7.33;;;0.50;99.90;0.20;101141.00;;;;4917207;28;92374;-64
2023/03/03 00:40:38;;;;;;;13.73;8.20;;;0.50;99.90;0.20;101137.00;;;;4918097;28;103137;-64
2023/03/03 00:43:28;;;;;;;15.40;8.63;;;0.50;99.90;0.20;101139.00;;;;4935399;28;93384;-64
2023/03/03 00:45:55;;;;;;;9.33;6.87;;;0.70;99.90;0.20;101130.00;;;;4916397;28;94278;-64
2023/03/03 00:48:34;;;;;;;14.77;8.90;;;0.60;99.90;0.20;101130.00;;;;4933400;28;94062;-65
2023/03/03 00:51:09;;;;;;;14.43;8.37;;;0.60;99.90;0.20;101141.00;;;;4935280;28;93452;-63
2023/03/03 00:53:35;;;;;;;10.70;7.10;;;0.50;99.90;0.20;101125.00;;;;4933067;28;112942;-64
2023/03/03 00:56:01;;;;;;;8.70;6.43;;;0.50;99.90;0.20;101133.00;;;;4933574;28;121976;-65
2023/03/03 00:58:27;;;;;;;15.00;7.73;;;0.50;99.90;0.20;101117.00;;;;4934203;28;93101;-64
2023/03/03 01:00:55;;;;;;;11.53;5.70;;;0.50;99.90;0.20;101128.00;;;;4934852;28;92899;-63
2023/03/03 01:03:23;;;;;;;8.40;5.63;;;0.50;99.90;0.20;101131.00;;;;4936324;28;93875;-64
2023/03/03 01:05:50;;;;;;;11.40;7.07;;;0.40;99.90;0.20;101133.00;;;;4933231;28;92844;-64
2023/03/03 01:08:16;;;;;;;10.23;6.70;;;0.60;99.90;0.20;101127.00;;;;4914057;28;92794;-64
2023/03/03 01:11:15;;;;;;;11.50;5.87;;;0.50;99.90;0.20;101127.00;;;;4933975;28;93842;-63
2023/03/03 01:13:43;;;;;;;9.30;6.27;;;0.50;99.90;0.20;101126.00;;;;4925154;28;93976;-64
2023/03/03 01:16:09;;;;;;;10.50;6.33;;;0.50;99.90;0.20;101126.00;;;;4918923;28;112588;-64
2023/03/03 01:18:35;;;;;;;7.87;6.53;;;0.60;99.90;0.10;101123.00;;;;4916679;28;111648;-64
2023/03/03 01:21:01;;;;;;;6.90;5.70;;;0.50;99.90;0.00;101128.00;;;;4934964;28;92752;-64
2023/03/03 01:23:27;;;;;;;12.60;7.93;;;0.30;99.90;-0.10;101124.00;;;;4934158;28;121503;-65
2023/03/03 01:25:53;;;;;;;8.03;5.77;;;0.30;99.90;0.00;101116.00;;;;4934865;28;92941;-64
2023/03/03 01:28:19;;;;;;;8.10;5.17;;;0.40;99.90;0.00;101111.00;;;;4934224;28;92192;-64
2023/03/03 01:30:44;;;;;;;8.30;5.57;;;0.30;99.90;0.00;101120.00;;;;4932942;28;92971;-63
2023/03/03 01:33:10;;;;;;;12.00;6.67;;;0.30;99.90;0.00;101112.00;;;;4935667;28;94022;-64
2023/03/03 01:35:36;;;;;;;8.47;5.00;;;0.20;99.90;0.00;101114.00;;;;4932431;28;122936;-64
2023/03/03 01:38:02;;;;;;;11.43;6.33;;;1.20;99.90;0.00;101105.00;;;;4934231;28;92926;-64
2023/03/03 01:40:30;;;;;;;7.90;4.83;;;0.30;99.90;-0.10;101108.00;;;;4916664;28;108086;-63
2023/03/03 01:42:58;;;;;;;12.63;7.03;;;0.20;99.90;-0.20;101114.00;;;;4933285;28;93402;-63
2023/03/03 01:45:28;;;;;;;8.63;5.90;;;0.20;99.90;-0.20;101106.00;;;;4932309;28;94284;-63
2023/03/03 01:48:05;;;;;;;10.80;6.43;;;0.20;99.90;-0.30;101101.00;;;;4914420;28;92915;-64
2023/03/03 01:50:43;;;;;;;12.57;7.40;;;0.10;99.90;-0.30;101102.00;;;;4915571;28;93117;-63
2023/03/03 01:53:17;;;;;;;6.00;4.60;;;0.10;99.90;-0.30;101093.00;;;;4936470;28;92988;-64
2023/03/03 01:55:45;;;;;;;10.50;6.03;;;0.20;99.90;-0.30;101103.00;;;;4914849;28;92897;-64
2023/03/03 01:58:20;;;;;;;5.10;4.13;;;0.10;99.90;-0.20;101105.00;;;;4933775;28;103589;-63
2023/03/03 02:00:55;;;;;;;11.23;7.50;;;0.10;99.90;-0.30;101108.00;;;;4916440;28;94218;-63
2023/03/03 02:03:22;;;;;;;9.67;6.53;;;0.10;99.90;-0.30;101115.00;;;;4932201;28;113734;-64
2023/03/03 02:05:52;;;;;;;8.07;5.60;;;0.10;99.90;-0.30;101117.00;;;;4931879;28;93471;-64
2023/03/03 02:08:26;;;;;;;11.77;6.57;;;0.10;99.90;-0.30;101123.00;;;;4932283;28;95480;-64
2023/03/03 02:10:56;;;;;;;10.17;6.13;;;0.10;99.90;-0.30;101107.00;;;;4915185;28;93149;-64
2023/03/03 02:13:22;;;;;;;9.13;5.97;;;-0.10;99.90;-0.30;101108.00;;;;4907788;28;93221;-64
2023/03/03 02:15:47;;;;;;;7.07;5.07;;;0.20;99.90;-0.20;101104.00;;;;4932347;28;113156;-64
2023/03/03 02:18:18;;;;;;;7.07;4.50;;;0.10;99.90;-0.30;101109.00;;;;4934235;28;109742;-64
2023/03/03 02:21:06;;;;;;;8.63;5.40;;;0.10;99.90;-0.30;101119.00;;;;4932094;28;92981;-64
2023/03/03 02:23:38;;;;;;;7.83;4.67;;;0.10;99.90;-0.30;101120.00;;;;4948015;28;93030;-64
2023/03/03 02:26:11;;;;;;;7.73;4.60;;;-0.90;99.90;-0.30;101120.00;;;;4929255;28;93817;-64
2023/03/03 02:28:39;;;;;;;6.53;4.57;;;0.00;99.90;-0.30;101115.00;;;;4925857;28;93093;-65
2023/03/03 02:31:13;;;;;;;7.47;5.27;;;0.10;99.90;-0.30;101129.00;;;;4928298;28;92978;-65
2023/03/03 02:33:46;;;;;;;11.77;6.27;;;0.10;99.90;-0.30;101124.00;;;;4931971;28;93081;-64
2023/03/03 02:36:19;;;;;;;12.73;6.47;;;0.10;99.90;-0.30;101120.00;;;;4929616;28;93323;-65
2023/03/03 02:39:19;;;;;;;12.03;4.90;;;0.00;99.90;-0.40;101123.00;;;;4932756;28;92960;-65
2023/03/03 02:42:03;;;;;;;10.73;5.50;;;0.00;99.90;-0.40;101123.00;;;;4930200;28;92938;-66
2023/03/03 02:44:31;;;;;;;8.70;5.70;;;0.00;99.90;-0.40;101118.00;;;;4930612;28;93136;-66
2023/03/03 02:46:58;;;;;;;7.43;4.80;;;0.10;99.90;-0.40;101116.00;;;;4945259;28;105891;-65
2023/03/03 02:49:33;;;;;;;9.47;5.23;;;-0.10;99.90;-0.40;101109.00;;;;4930374;28;93293;-65
2023/03/03 02:52:01;;;;;;;12.30;6.37;;;0.00;99.90;-0.40;101110.00;;;;4932396;28;93916;-64
2023/03/03 02:54:29;;;;;;;8.83;5.73;;;0.00;99.90;-0.30;101119.00;;;;4932738;28;94367;-64
2023/03/03 02:56:56;;;;;;;6.63;5.17;;;0.00;99.90;-0.30;101107.00;;;;4932010;28;92860;-65
2023/03/03 02:59:22;;;;;;;8.00;5.83;;;0.00;99.90;-0.30;101100.00;;;;4932753;28;92821;-66
2023/03/03 03:01:48;;;;;;;10.47;6.03;;;0.00;99.90;-0.30;101093.00;;;;4931240;28;92907;-65
2023/03/03 03:04:18;;;;;;;7.03;4.97;;;0.00;99.90;-0.30;101099.00;;;;4930782;28;93195;-66
2023/03/03 03:06:45;;;;;;;11.80;6.60;;;0.00;99.90;-0.30;101105.00;;;;4929286;28;92994;-66
2023/03/03 03:09:12;;;;;;;11.60;5.40;;;0.00;99.90;-0.30;101107.00;;;;4932062;28;92097;-66
2023/03/03 03:11:38;;;;;;;15.47;7.80;;;0.00;99.90;-0.30;101105.00;;;;4931765;28;92977;-64
2023/03/03 03:14:06;;;;;;;13.90;7.50;;;0.00;99.90;-0.40;101105.00;;;;4932872;28;93365;-65
2023/03/03 03:16:32;;;;;;;6.87;4.90;;;0.00;99.90;-0.40;101116.00;;;;4932854;28;93854;-64
2023/03/03 03:18:59;;;;;;;9.00;5.70;;;-0.10;99.90;-0.40;101114.00;;;;4932337;28;92892;-65
2023/03/03 03:21:25;;;;;;;13.20;6.60;;;-0.10;99.90;-0.50;101108.00;;;;4946090;28;92936;-65
2023/03/03 03:23:51;;;;;;;17.13;8.23;;;-0.10;99.90;-0.50;101113.00;;;;4947558;28;121105;-66
2023/03/03 03:26:19;;;;;;;10.33;6.77;;;-0.20;99.90;-0.50;101109.00;;;;4940143;28;120075;-65
2023/03/03 03:28:46;;;;;;;12.57;6.67;;;-0.20;99.90;-0.50;101114.00;;;;4932841;28;94266;-65
2023/03/03 03:31:12;;;;;;;12.57;7.23;;;-0.10;99.90;-0.50;101119.00;;;;4933790;28;94026;-65
2023/03/03 03:33:38;;;;;;;9.10;5.13;;;-0.20;99.90;-0.50;101119.00;;;;4930351;28;93439;-65
2023/03/03 03:36:05;;;;;;;13.27;7.03;;;-0.10;99.90;-0.40;101109.00;;;;4930909;28;121131;-65
2023/03/03 03:38:32;;;;;;;16.53;8.40;;;-0.10;99.90;-0.50;101108.00;;;;4930520;28;92847;-65
2023/03/03 03:40:58;;;;;;;20.53;9.30;;;-0.10;99.90;-0.50;101121.00;;;;4930526;28;93766;-65
2023/03/03 03:43:24;;;;;;;15.00;8.17;;;-0.10;99.90;-0.50;101133.00;;;;4929782;28;94256;-65
2023/03/03 03:45:50;;;;;;;11.77;7.90;;;-0.10;99.90;-0.60;101122.00;;;;4930416;28;93732;-65
2023/03/03 03:48:18;;;;;;;8.70;6.13;;;-0.20;99.90;-0.50;101120.00;;;;4932721;28;111104;-65
2023/03/03 03:50:44;;;;;;;16.13;7.87;;;-0.10;99.90;-0.50;101133.00;;;;4931515;28;92774;-67
2023/03/03 03:53:09;;;;;;;23.07;10.50;;;-0.20;99.90;-0.60;101132.00;;;;4929459;28;123241;-65
2023/03/03 03:55:35;;;;;;;11.63;6.30;;;-0.10;99.90;-0.60;101126.00;;;;4929872;28;123194;-66
2023/03/03 03:58:01;;;;;;;17.83;7.90;;;-0.40;99.90;-0.60;101141.00;;;;4931849;28;112504;-65
2023/03/03 04:00:26;;;;;;;21.87;8.93;;;-0.20;99.90;-0.70;101131.00;;;;4930887;28;108236;-66
2023/03/03 04:02:52;;;;;;;12.27;7.60;;;-0.30;99.90;-0.60;101135.00;;;;4929463;28;93788;-65
2023/03/03 04:05:18;;;;;;;12.83;8.30;;;1.00;99.90;-0.60;101142.00;;;;4931357;28;121513;-66
2023/03/03 04:07:44;;;;;;;14.73;7.83;;;0.70;99.90;-0.60;101138.00;;;;4914773;28;93405;-65
2023/03/03 04:10:10;;;;;;;20.20;9.80;;;-0.30;99.90;-0.60;101131.00;;;;4931119;28;93415;-66
2023/03/03 04:12:39;;;;;;;15.43;8.20;;;-0.30;99.90;-0.60;101128.00;;;;4931841;28;104395;-66
2023/03/03 04:15:08;;;;;;;18.53;8.53;;;-0.20;99.90;-0.70;101134.00;;;;4933500;28;93094;-65
2023/03/03 04:17:34;;;;;;;12.30;7.70;;;-0.30;99.90;-0.70;101147.00;;;;4933343;28;99047;-65
2023/03/03 04:20:01;;;;;;;20.30;9.97;;;-0.30;99.90;-0.70;101137.00;;;;4936260;28;92823;-65
2023/03/03 04:22:27;;;;;;;20.47;9.43;;;-0.30;99.90;-0.60;101141.00;;;;4935266;28;92398;-65
2023/03/03 04:24:53;;;;;;;15.53;9.90;;;-0.20;99.90;-0.60;101148.00;;;;4931244;28;107947;-65
2023/03/03 04:27:18;;;;;;;19.80;10.73;;;-0.30;99.90;-0.60;101149.00;;;;4935134;28;92940;-65
2023/03/03 04:29:44;;;;;;;17.90;9.37;;;-0.30;99.90;-0.60;101157.00;;;;4933305;28;108860;-67
2023/03/03 04:32:10;;;;;;;11.13;6.70;;;-0.20;99.90;-0.60;101145.00;;;;4934061;28;93045;-67
2023/03/03 04:34:35;;;;;;;16.63;9.30;;;-0.30;99.90;-0.50;101146.00;;;;4935119;28;121564;-67
2023/03/03 04:37:01;;;;;;;25.80;11.03;;;-0.10;99.90;-0.50;101152.00;;;;4933432;28;100202;-67
2023/03/03 04:39:28;;;;;;;17.43;9.90;;;-0.10;99.90;-0.50;101145.00;;;;4933820;28;93142;-67
2023/03/03 04:41:54;;;;;;;17.50;8.73;;;-0.10;99.90;-0.40;101156.00;;;;4934138;28;104379;-67
2023/03/03 04:44:20;;;;;;;22.07;9.00;;;-0.10;99.90;-0.40;101145.00;;;;4932032;28;121314;-67
2023/03/03 04:46:46;;;;;;;22.97;11.23;;;-0.10;99.90;-0.40;101143.00;;;;4933761;28;92347;-67
2023/03/03 04:49:12;;;;;;;23.33;8.60;;;0.00;99.90;-0.30;101158.00;;;;4933345;28;92890;-67
2023/03/03 04:51:37;;;;;;;23.07;10.47;;;0.00;99.90;-0.30;101144.00;;;;4932391;28;123349;-67
2023/03/03 04:54:03;;;;;;;22.57;10.67;;;0.00;99.90;-0.30;101137.00;;;;4930546;28;112499;-67
2023/03/03 04:56:30;;;;;;;23.13;10.57;;;0.00;99.90;-0.30;101152.00;;;;4929143;28;92702;-67
2023/03/03 04:58:56;;;;;;;22.00;11.43;;;0.10;99.90;-0.30;101142.00;;;;4916059;28;93745;-67
2023/03/03 05:01:22;;;;;;;21.07;11.20;;;0.00;99.90;-0.30;101160.00;;;;4932256;28;93123;-67
2023/03/03 05:03:48;;;;;;;18.87;9.67;;;0.10;99.90;-0.30;101157.00;;;;4933192;28;121281;-67
2023/03/03 05:06:13;;;;;;;20.37;10.33;;;0.00;99.90;-0.40;101149.00;;;;4930962;28;96905;-67
2023/03/03 05:08:41;;;;;;;23.47;9.90;;;0.00;99.90;-0.40;101152.00;;;;4933770;28;92799;-67
2023/03/03 05:11:07;;;;;;;15.53;8.83;;;-0.10;99.90;-0.40;101147.00;;;;4929912;28;93619;-66
2023/03/03 05:13:33;;;;;;;16.63;7.47;;;0.00;99.90;-0.50;101129.00;;;;4929436;28;93119;-66
2023/03/03 05:15:59;;;;;;;23.37;10.43;;;0.00;99.90;-0.50;101140.00;;;;4916006;28;92938;-65
2023/03/03 05:18:26;;;;;;;20.00;9.20;;;-0.20;99.90;-0.60;101125.00;;;;4929800;28;109205;-65
2023/03/03 05:20:53;;;;;;;21.07;9.73;;;-0.20;99.90;-0.60;101143.00;;;;4934812;28;94209;-64
2023/03/03 05:23:20;;;;;;;19.90;9.37;;;-0.20;99.90;-0.70;101134.00;;;;4931359;28;93677;-64
2023/03/03 05:25:49;;;;;;;10.63;7.17;;;-0.30;99.90;-0.70;101139.00;;;;4933698;28;93010;-64
2023/03/03 05:28:21;;;;;;;18.40;8.73;;;-0.30;99.90;-0.70;101128.00;;;;4931496;28;107242;-64
2023/03/03 05:30:47;;;;;;;12.43;7.73;;;-0.50;99.90;-0.70;101148.00;;;;4934545;28;93044;-63
2023/03/03 05:33:15;;;;;;;16.63;7.90;;;-0.40;99.90;-0.70;101134.00;;;;4931164;28;121808;-64
2023/03/03 05:35:40;;;;;;;15.40;9.53;;;-0.30;99.90;-0.70;101130.00;;;;4935711;28;92133;-65
2023/03/03 05:38:06;;;;;;;13.73;6.87;;;-0.40;99.90;-0.70;101134.00;;;;4937210;28;97154;-64
2023/03/03 05:40:32;;;;;;;18.97;8.27;;;-0.40;99.90;-0.60;101135.00;;;;4930591;28;124565;-66
2023/03/03 05:42:57;;;;;;;18.40;9.07;;;-0.30;99.90;-0.60;101140.00;;;;4928513;28;122289;-64
2023/03/03 05:45:23;;;;;;;17.33;8.53;;;-0.30;99.90;-0.60;101155.00;;;;4928744;28;110004;-64
2023/03/03 05:47:50;;;;;;;13.23;7.27;;;-0.30;99.90;-0.60;101162.00;;;;4926260;28;109776;-64
2023/03/03 05:50:18;;;;;;;13.47;7.00;;;-0.20;99.90;-0.60;101140.00;;;;4929279;28;94052;-65
2023/03/03 05:52:47;;;;;;;12.13;7.63;;;-0.20;99.90;-0.60;101137.00;;;;4929015;28;93043;-64
2023/03/03 05:55:12;;;;;;;10.53;7.33;;;-0.30;99.90;-0.60;101136.00;;;;4929470;28;103959;-64
2023/03/03 05:57:38;;;;;;;11.07;7.10;;;-0.30;99.90;-0.60;101129.00;;;;4931043;28;109036;-65
2023/03/03 06:00:05;;;;;;;19.30;9.10;;;-0.30;99.90;-0.60;101134.00;;;;4927568;28;122013;-66
2023/03/03 06:02:31;;;;;;;13.67;7.60;;;0.70;99.90;-0.60;101138.00;;;;4929665;28;93051;-66
2023/03/03 06:04:57;;;;;;;16.70;7.87;;;-0.40;99.90;-0.60;101138.00;;;;4911867;28;110001;-66
2023/03/03 06:07:22;;;;;;;13.97;7.40;;;-0.20;99.90;-0.60;101142.00;;;;4926965;28;108866;-64
2023/03/03 06:09:48;;;;;;;18.13;7.60;;;0.50;99.90;-0.70;101147.00;;;;4927162;28;121922;-65
2023/03/03 06:12:14;;;;;;;17.07;8.00;;;-0.30;99.90;-0.70;101139.00;;;;4927884;28;93338;-63
2023/03/03 06:14:40;;;;;;;15.53;7.63;;;-0.20;99.90;-0.70;101147.00;;;;4929888;28;92950;-63
2023/03/03 06:17:05;;;;;;;11.10;6.37;;;-0.30;99.90;-0.70;101148.00;;;;4928518;28;109525;-64
2023/03/03 06:19:31;;;;;;;14.07;7.57;;;-0.30;99.90;-0.70;101158.00;;;;4926906;28;122547;-63
2023/03/03 06:21:57;;;;;;;17.33;7.80;;;0.50;99.90;-0.60;101165.00;;;;4929570;28;122100;-64
2023/03/03 06:24:24;;;;;;;18.10;8.33;;;-0.30;99.90;-0.60;101173.00;;;;4927736;28;103520;-64
2023/03/03 06:26:50;;;;;;;14.57;7.43;;;-0.30;99.90;-0.60;101174.00;;;;4928266;28;93136;-64
2023/03/03 06:29:16;;;;;;;19.83;7.80;;;-0.20;99.90;-0.60;101187.00;;;;4928513;28;93613;-64
2023/03/03 06:31:43;;;;;;;14.80;7.13;;;-0.10;99.90;-0.60;101188.00;;;;4925229;28;93800;-64
2023/03/03 06:34:09;;;;;;;10.77;6.30;;;-0.20;99.90;-0.60;101182.00;;;;4928557;28;93242;-64
2023/03/03 06:36:34;;;;;;;14.13;7.63;;;-0.20;99.90;-0.60;101191.00;;;;4929365;28;102428;-64
2023/03/03 06:39:00;;;;;;;19.00;9.13;;;-0.20;99.90;-0.60;101195.00;;;;4927734;28;122270;-65
2023/03/03 06:41:26;;;;;;;12.50;7.67;;;-0.20;99.90;-0.60;101188.00;;;;4928816;28;93513;-63
2023/03/03 06:43:52;;;;;;;11.97;6.53;;;-0.20;99.90;-0.60;101196.00;;;;4928598;28;98405;-65
2023/03/03 06:46:17;;;;;;;13.13;7.57;;;-0.30;99.90;-0.60;101182.00;;;;4927638;28;92990;-63
2023/03/03 06:48:43;;;;;;;15.97;8.43;;;-0.20;99.90;-0.60;101198.00;;;;4927684;28;93457;-64
2023/03/03 06:51:33;;;;;;;18.40;8.30;;;-0.30;99.90;-0.60;101188.00;;;;4926128;28;93150;-65
2023/03/03 06:54:09;;;;;;;17.00;7.47;;;-0.20;99.90;-0.50;101194.00;;;;4928845;28;93007;-65
2023/03/03 06:56:36;;;;;;;25.53;9.70;;;-0.20;99.90;-0.50;101186.00;;;;4912927;28;95694;-63
2023/03/03 06:59:11;;;;;;;17.80;7.70;;;0.00;99.90;-0.50;101197.00;;;;4928645;28;94553;-64
2023/03/03 07:01:37;;;;;;;10.90;6.87;;;-0.20;99.90;-0.50;101197.00;;;;4926506;28;109782;-64
2023/03/03 07:04:32;;;;;;;22.67;7.83;;;-0.20;99.90;-0.50;101205.00;;;;4928197;28;102957;-64
2023/03/03 07:07:12;;;;;;;17.73;8.00;;;-0.10;99.90;-0.40;101204.00;;;;4942891;28;93026;-64
2023/03/03 07:09:38;;;;;;;18.17;8.23;;;-0.10;99.90;-0.40;101214.00;;;;4925838;28;95476;-64
2023/03/03 07:12:14;;;;;;;10.70;6.13;;;-0.10;99.90;-0.40;101226.00;;;;4927052;28;118597;-64
2023/03/03 07:14:46;;;;;;;10.60;4.80;;;0.40;99.90;-0.30;101216.00;;;;4926957;28;92424;-65
2023/03/03 07:17:18;;;;;;;11.50;5.33;;;0.00;99.90;-0.40;101212.00;;;;4927491;28;93010;-64
2023/03/03 07:19:45;;;;;;;12.33;6.70;;;-0.10;99.90;-0.40;101211.00;;;;4926370;28;94066;-64
2023/03/03 07:22:20;;;;;;;16.27;6.73;;;0.00;99.90;-0.40;101218.00;;;;4925102;28;108606;-64
2023/03/03 07:24:51;;;;;;;7.33;4.93;;;-0.90;99.90;-0.40;101220.00;;;;4925716;28;92789;-64
2023/03/03 07:27:27;;;;;;;9.77;5.10;;;0.00;99.90;-0.40;101210.00;;;;4924106;28;93103;-66
2023/03/03 07:30:09;;;;;;;8.67;4.87;;;-0.10;99.90;-0.50;101201.00;;;;4927160;28;94279;-65
2023/03/03 07:32:44;;;;;;;10.00;4.17;;;-0.10;99.90;-0.50;101202.00;;;;4927267;28;93100;-64
2023/03/03 07:35:40;;;;;;;7.63;4.63;;;-0.20;99.90;-0.60;101205.00;;;;4925695;28;93237;-65
2023/03/03 07:38:34;;;;;;;7.23;4.67;;;-0.20;99.90;-0.60;101210.00;;;;4926217;28;93213;-65
2023/03/03 07:41:04;;;;;;;12.33;4.80;;;-0.40;99.90;-0.60;101217.00;;;;4927216;28;92452;-65
2023/03/03 07:43:39;;;;;;;5.53;3.57;;;-0.20;99.90;-0.60;101221.00;;;;4927662;28;93018;-65
2023/03/03 07:46:16;;;;;;;3.23;2.77;;;-0.20;99.90;-0.60;101218.00;;;;4925348;28;101654;-65
2023/03/03 07:48:43;;;;;;;6.67;4.10;;;-0.20;99.90;-0.60;101214.00;;;;4928773;28;93941;-65
2023/03/03 07:51:36;;;;;;;3.27;2.87;;;-0.20;99.90;-0.60;101216.00;;;;4930037;28;93420;-64
2023/03/03 07:54:30;;;;;;;8.87;3.63;;;-0.20;99.90;-0.60;101227.00;;;;4910834;28;92959;-64
2023/03/03 07:57:27;;;;;;;6.37;4.50;;;-0.10;99.90;-0.50;101233.00;;;;4931260;28;92744;-63
2023/03/03 08:00:27;;;;;;;6.27;3.23;;;-0.20;99.90;-0.50;101233.00;;;;4932237;28;92897;-63
2023/03/03 08:03:07;;;;;;;5.10;3.37;;;-0.10;99.90;-0.50;101230.00;;;;4901043;28;93279;-66
2023/03/03 08:05:42;;;;;;;5.53;3.40;;;-0.10;99.90;-0.40;101234.00;;;;4913060;28;110250;-65
2023/03/03 08:08:35;;;;;;;6.37;3.67;;;0.00;99.90;-0.40;101231.00;;;;4928740;28;92236;-66
2023/03/03 08:11:03;;;;;;;8.53;3.60;;;-0.10;99.90;-0.30;101247.00;;;;4927988;28;92998;-66
2023/03/03 08:13:37;;;;;;;4.77;2.97;;;0.10;99.90;-0.30;101237.00;;;;4929167;28;94475;-67
2023/03/03 08:16:08;;;;;;;3.23;2.33;;;0.00;99.90;-0.30;101258.00;;;;4912096;28;94315;-65
2023/03/03 08:18:45;;;;;;;3.30;2.03;;;0.00;99.90;-0.30;101263.00;;;;4929549;28;109785;-65
2023/03/03 08:21:14;;;;;;;7.30;4.03;;;0.00;99.90;-0.30;101254.00;;;;4929760;28;93087;-66
2023/03/03 08:23:40;;;;;;;4.17;2.33;;;0.00;99.90;-0.30;101259.00;;;;4928982;28;93056;-65
2023/03/03 08:26:06;;;;;;;8.57;3.27;;;0.00;99.90;-0.30;101258.00;;;;4929311;28;117837;-65
2023/03/03 08:28:32;;;;;;;10.87;3.73;;;0.00;99.90;-0.30;101250.00;;;;4929107;28;96912;-65
2023/03/03 08:30:57;;;;;;;7.53;2.73;;;0.10;99.90;-0.30;101238.00;;;;4930313;28;92877;-66
2023/03/03 08:33:23;;;;;;;3.53;2.43;;;0.10;99.90;-0.20;101247.00;;;;4930460;28;121614;-66
2023/03/03 08:35:49;;;;;;;7.00;3.27;;;0.10;99.90;-0.20;101244.00;;;;4928716;28;122632;-64
2023/03/03 08:38:19;;;;;;;7.70;3.47;;;-0.80;99.90;-0.20;101242.00;;;;4928135;28;112046;-63
2023/03/03 08:40:46;;;;;;;3.43;2.33;;;0.10;99.90;-0.10;101238.00;;;;4928640;28;94032;-63
2023/03/03 08:43:16;;;;;;;4.77;2.87;;;0.20;99.90;-0.10;101250.00;;;;4929591;28;93662;-65
2023/03/03 08:45:44;;;;;;;7.03;4.27;;;0.20;99.90;0.00;101250.00;;;;4930304;28;93107;-63
2023/03/03 08:48:16;;;;;;;11.43;3.00;;;0.30;99.90;0.10;101241.00;;;;4912353;28;94638;-65
2023/03/03 08:50:42;;;;;;;2.97;1.80;;;0.40;99.90;0.20;101250.00;;;;4930260;28;106268;-63
2023/03/03 08:53:10;;;;;;;5.03;2.73;;;0.40;99.90;0.20;101260.00;;;;4929225;28;93666;-63
2023/03/03 08:55:36;;;;;;;3.10;2.13;;;0.60;99.90;0.30;101265.00;;;;4927663;28;103855;-63
2023/03/03 08:58:01;;;;;;;8.50;3.00;;;0.50;99.90;0.30;101267.00;;;;4930219;28;92320;-63
2023/03/03 09:00:27;;;;;;;2.80;1.83;;;0.70;99.90;0.40;101260.00;;;;4926464;28;110224;-64
2023/03/03 09:02:54;;;;;;;2.07;1.73;;;0.70;99.90;0.40;101288.00;;;;4928482;28;120973;-64
2023/03/03 09:05:21;;;;;;;2.90;1.67;;;0.60;99.90;0.50;101277.00;;;;4929467;28;93555;-64
2023/03/03 09:07:48;;;;;;;3.30;2.67;;;0.70;99.90;0.50;101266.00;;;;4927923;28;107688;-65
2023/03/03 09:10:18;;;;;;;3.30;2.20;;;0.80;99.90;0.50;101273.00;;;;4929965;28;92739;-63
2023/03/03 09:12:49;;;;;;;2.97;2.23;;;0.80;99.90;0.50;101263.00;;;;4926205;28;111375;-65
2023/03/03 09:15:25;;;;;;;4.53;2.20;;;0.80;99.90;0.40;101257.00;;;;4925396;28;93018;-65
2023/03/03 09:17:53;;;;;;;3.13;2.40;;;1.30;99.90;0.40;101255.00;;;;4928489;28;93032;-64
2023/03/03 09:20:32;;;;;;;3.33;2.13;;;0.70;99.90;0.30;101263.00;;;;4928301;28;100843;-65
2023/03/03 09:22:59;;;;;;;3.07;2.13;;;0.80;99.90;0.40;101260.00;;;;4929449;28;93103;-64
2023/03/03 09:25:35;;;;;;;5.40;2.30;;;0.80;99.90;0.40;101258.00;;;;4910162;28;94365;-64
2023/03/03 09:28:02;;;;;;;5.33;3.13;;;0.70;99.90;0.40;101248.00;;;;4912963;28;93215;-65
2023/03/03 09:30:38;;;;;;;3.70;2.33;;;0.70;99.90;0.40;101240.00;;;;4928891;28;103766;-63
2023/03/03 09:33:36;;;;;;;3.97;2.43;;;0.80;99.90;0.30;101251.00;;;;4929345;28;94009;-62
2023/03/03 09:36:29;;;;;;;4.97;2.97;;;0.70;99.90;0.40;101253.00;;;;4911469;28;109005;-65
2023/03/03 09:38:56;;;;;;;4.23;2.47;;;1.70;99.90;0.50;101249.00;;;;4911513;28;92888;-66
2023/03/03 09:41:45;;;;;;;4.17;2.33;;;0.80;99.90;0.50;101269.00;;;;4927678;28;92969;-65
2023/03/03 09:44:54;;;;;;;4.30;2.37;;;0.80;99.90;0.60;101260.00;;;;4931498;28;95267;-64
2023/03/03 09:47:53;;;;;;;3.97;2.37;;;0.90;99.90;0.60;101269.00;;;;4927497;28;94749;-64
2023/03/03 09:50:35;;;;;;;2.13;1.93;;;1.00;99.90;0.80;101268.00;;;;4929472;28;92081;-64
2023/03/03 09:53:18;;;;;;;5.73;1.90;;;1.60;99.90;0.90;101271.00;;;;4928039;28;93115;-65
2023/03/03 09:56:08;;;;;;;3.87;2.70;;;1.20;99.90;1.00;101264.00;;;;4913858;28;93220;-65
2023/03/03 09:58:56;;;;;;;3.50;3.00;;;1.20;99.90;1.00;101271.00;;;;4918328;28;115469;-65
2023/03/03 10:01:49;;;;;;;4.83;2.80;;;1.30;99.90;1.00;101269.00;;;;4927614;28;93038;-64
2023/03/03 10:04:36;;;;;;;2.90;2.13;;;1.30;99.90;1.10;101265.00;;;;4913541;28;93198;-64
2023/03/03 10:07:19;;;;;;;4.17;2.20;;;1.30;99.90;1.20;101271.00;;;;4926790;28;92915;-65
2023/03/03 10:10:18;;;;;;;4.33;2.03;;;1.40;99.90;1.20;101277.00;;;;4912731;28;93526;-64
2023/03/03 10:13:17;;;;;;;2.63;2.20;;;1.50;99.90;1.20;101280.00;;;;4910907;28;93105;-63
2023/03/03 10:15:59;;;;;;;4.53;2.70;;;1.60;99.90;1.20;101282.00;;;;4929236;28;93086;-64
2023/03/03 10:19:09;;;;;;;2.93;2.40;;;1.60;99.90;1.20;101285.00;;;;4929533;28;103318;-63
2023/03/03 10:21:50;;;;;;;4.40;2.43;;;1.40;99.90;1.10;101280.00;;;;4910186;28;112108;-63
2023/03/03 10:24:39;;;;;;;3.33;2.23;;;1.40;99.90;1.20;101284.00;;;;4929093;28;92784;-64
2023/03/03 10:27:33;;;;;;;2.20;2.00;;;1.50;99.90;1.20;101276.00;;;;4908645;28;100973;-66
2023/03/03 10:30:43;;;;;;;4.13;3.37;;;1.50;99.90;1.30;101286.00;;;;4924096;28;95952;-67
2023/03/03 10:33:29;;;;;;;2.93;2.00;;;1.60;99.90;1.40;101285.00;;;;4909509;28;94848;-66
2023/03/03 10:36:12;;;;;;;3.00;2.30;;;1.60;99.90;1.40;101301.00;;;;4928164;28;92876;-65
2023/03/03 10:39:33;;;;;;;4.87;3.00;;;1.70;99.90;1.40;101299.00;;;;4929300;28;92897;-66
2023/03/03 10:42:10;;;;;;;4.13;2.63;;;1.70;99.90;1.50;101293.00;;;;4923552;28;92906;-65
2023/03/03 10:45:04;;;;;;;2.93;2.23;;;1.80;99.90;1.50;101295.00;;;;4928451;28;93014;-65
2023/03/03 10:48:09;;;;;;;6.57;3.33;;;1.80;99.90;1.60;101286.00;;;;4927488;28;92287;-67
2023/03/03 10:51:24;;;;;;;3.17;2.23;;;1.80;99.90;1.60;101287.00;;;;4910558;28;99091;-67
2023/03/03 10:53:59;;;;;;;4.40;2.53;;;1.90;99.90;1.60;101282.00;;;;4934410;28;112574;-65
2023/03/03 10:56:49;;;;;;;5.33;2.60;;;1.90;99.90;1.60;101274.00;;;;4943042;28;105557;-66
2023/03/03 10:59:33;;;;;;;3.37;2.70;;;2.00;99.90;1.60;101292.00;;;;4916738;28;92942;-66
2023/03/03 11:02:24;;;;;;;3.47;2.93;;;1.90;99.90;1.60;101285.00;;;;4927709;28;92893;-65
2023/03/03 11:05:02;;;;;;;3.90;3.07;;;2.20;99.90;1.60;101299.00;;;;4927135;28;93317;-65
2023/03/03 11:07:43;;;;;;;9.60;3.23;;;2.00;99.90;1.60;101293.00;;;;4926864;28;114376;-65
2023/03/03 11:10:41;;;;;;;4.60;3.33;;;2.00;99.90;1.70;101280.00;;;;4904632;28;104330;-65
2023/03/03 11:13:59;;;;;;;3.67;2.83;;;1.90;99.90;1.80;101277.00;;;;4928902;28;93193;-65